createdAt,value
2018-05-04T00:02:13.354Z,2.80
2018-05-04T00:04:42.279Z,2.78
2018-05-04T00:07:11.166Z,3.75
2018-05-04T00:09:40.057Z,2.85
2018-05-04T00:12:08.959Z,3.28
2018-05-04T00:14:38.011Z,3.00
2018-05-04T00:17:06.894Z,3.08
2018-05-04T00:19:35.782Z,3.00
2018-05-04T00:22:04.887Z,3.37
2018-05-04T00:24:33.767Z,2.67
2018-05-04T00:27:02.666Z,3.50
2018-05-04T00:29:31.592Z,3.08
2018-05-04T00:32:00.482Z,2.85
2018-05-04T00:34:29.535Z,2.30
2018-05-04T00:36:58.436Z,2.83
2018-05-04T00:39:27.326Z,2.90
2018-05-04T00:41:56.223Z,2.78
2018-05-04T00:44:25.111Z,3.60
2018-05-04T00:46:54.211Z,2.67
2018-05-04T00:49:23.101Z,3.10
2018-05-04T00:51:52.004Z,3.42
2018-05-04T00:54:23.622Z,3.03
2018-05-04T00:56:52.649Z,2.90
2018-05-04T00:59:21.770Z,4.12
2018-05-04T01:01:50.668Z,2.53
2018-05-04T01:04:19.583Z,3.03
2018-05-04T01:06:48.483Z,3.03
2018-05-04T01:09:17.367Z,3.47
2018-05-04T01:11:46.270Z,2.58
2018-05-04T01:14:15.156Z,3.35
2018-05-04T01:16:44.039Z,2.80
2018-05-04T01:19:12.923Z,3.15
2018-05-04T01:21:42.263Z,3.05
2018-05-04T01:24:11.151Z,3.33
2018-05-04T01:26:40.035Z,2.65
2018-05-04T01:29:09.011Z,3.55
2018-05-04T01:31:37.906Z,3.83
2018-05-04T01:34:06.819Z,3.50
2018-05-04T01:36:35.714Z,2.97
2018-05-04T01:39:04.644Z,2.95
2018-05-04T01:41:33.928Z,3.10
2018-05-04T01:44:02.935Z,3.15
2018-05-04T01:46:31.823Z,3.72
2018-05-04T01:49:00.717Z,2.92
2018-05-04T01:51:29.599Z,2.90
2018-05-04T01:53:58.486Z,3.37
2018-05-04T01:56:27.433Z,3.85
2018-05-04T01:58:56.315Z,3.30
2018-05-04T02:01:25.207Z,2.90
2018-05-04T02:03:54.094Z,3.03
2018-05-04T02:06:22.995Z,2.65
2018-05-04T02:08:52.189Z,3.20
2018-05-04T02:11:21.093Z,2.83
2018-05-04T02:13:50.466Z,3.40
2018-05-04T02:16:19.380Z,2.85
2018-05-04T02:18:48.268Z,2.90
2018-05-04T02:21:17.167Z,2.65
2018-05-04T02:23:46.105Z,2.65
2018-05-04T02:26:15.052Z,3.15
2018-05-04T02:28:43.934Z,3.20
2018-05-04T02:31:12.824Z,3.20
2018-05-04T02:33:41.723Z,3.37
2018-05-04T02:36:10.730Z,2.62
2018-05-04T02:38:39.618Z,2.28
2018-05-04T02:41:08.511Z,2.92
2018-05-04T02:43:37.483Z,3.83
2018-05-04T02:46:06.459Z,2.42
2018-05-04T02:48:35.346Z,2.85
2018-05-04T02:51:04.238Z,2.72
2018-05-04T02:53:33.153Z,2.65
2018-05-04T02:56:02.043Z,3.67
2018-05-04T02:58:30.940Z,3.60
2018-05-04T03:01:00.035Z,2.85
2018-05-04T03:03:28.928Z,2.33
2018-05-04T03:05:57.836Z,2.53
2018-05-04T03:08:26.731Z,1.90
2018-05-04T03:10:55.627Z,3.22
2018-05-04T03:13:24.563Z,2.78
2018-05-04T03:15:53.456Z,3.92
2018-05-04T03:18:22.395Z,2.40
2018-05-04T03:20:51.294Z,3.28
2018-05-04T03:23:20.186Z,2.37
2018-05-04T03:25:49.417Z,3.22
2018-05-04T03:28:18.328Z,3.15
2018-05-04T03:30:47.222Z,4.18
2018-05-04T03:33:16.109Z,2.90
2018-05-04T03:35:45.129Z,3.25
2018-05-04T03:38:14.012Z,2.95
2018-05-04T03:40:42.895Z,2.97
2018-05-04T03:43:11.787Z,2.72
2018-05-04T03:45:40.875Z,2.47
2018-05-04T03:48:09.766Z,3.05
2018-05-04T03:50:38.651Z,5.25
2018-05-04T03:53:07.555Z,2.97
2018-05-04T03:55:36.441Z,2.90
2018-05-04T03:58:11.697Z,2.33
2018-05-04T04:00:46.339Z,3.60
2018-05-04T04:03:22.758Z,3.40
2018-05-04T04:05:51.685Z,2.90
2018-05-04T04:08:20.582Z,2.75
2018-05-04T04:10:49.865Z,3.42
2018-05-04T04:13:18.755Z,2.80
2018-05-04T04:15:47.651Z,2.70
2018-05-04T04:18:16.736Z,3.97
2018-05-04T04:20:45.841Z,2.37
2018-05-04T04:23:14.727Z,3.22
2018-05-04T04:25:43.616Z,2.22
2018-05-04T04:28:12.542Z,3.25
2018-05-04T04:30:41.436Z,2.53
2018-05-04T04:33:10.327Z,3.40
2018-05-04T04:35:39.222Z,3.30
2018-05-04T04:38:08.307Z,3.08
2018-05-04T04:40:37.199Z,3.05
2018-05-04T04:43:06.096Z,2.58
2018-05-04T04:45:35.025Z,2.65
2018-05-04T04:48:03.942Z,3.03
2018-05-04T04:50:32.888Z,2.92
2018-05-04T04:53:02.022Z,2.25
2018-05-04T04:55:30.914Z,3.20
2018-05-04T04:57:59.803Z,3.35
2018-05-04T05:00:28.694Z,3.12
2018-05-04T05:02:58.003Z,2.53
2018-05-04T05:05:26.892Z,3.00
2018-05-04T05:07:55.810Z,3.12
2018-05-04T05:10:24.706Z,2.83
2018-05-04T05:12:53.615Z,3.40
2018-05-04T05:15:22.667Z,3.40
2018-05-04T05:17:51.576Z,2.37
2018-05-04T05:20:20.877Z,2.62
2018-05-04T05:22:49.772Z,3.00
2018-05-04T05:25:19.662Z,2.65
2018-05-04T05:27:48.612Z,2.50
2018-05-04T05:30:17.515Z,2.03
2018-05-04T05:32:46.398Z,2.20
2018-05-04T05:35:15.286Z,2.70
2018-05-04T05:37:44.203Z,2.67
2018-05-04T05:40:13.094Z,2.45
2018-05-04T05:42:41.984Z,1.95
2018-05-04T05:45:10.874Z,2.28
2018-05-04T05:47:39.775Z,2.58
2018-05-04T05:50:08.682Z,2.97
2018-05-04T05:52:37.590Z,3.00
2018-05-04T05:55:06.526Z,2.47
2018-05-04T05:57:35.406Z,2.22
2018-05-04T06:00:04.300Z,2.10
2018-05-04T06:02:33.200Z,2.30
2018-05-04T06:05:02.095Z,2.40
2018-05-04T06:07:31.050Z,2.42
2018-05-04T06:09:59.945Z,1.30
2018-05-04T06:12:28.842Z,2.67
2018-05-04T06:14:57.763Z,1.92
2018-05-04T06:17:26.679Z,2.33
2018-05-04T06:19:55.562Z,2.20
2018-05-04T06:22:24.450Z,2.33
2018-05-04T06:24:53.391Z,2.00
2018-05-04T06:27:22.270Z,3.20
2018-05-04T06:29:51.163Z,1.80
2018-05-04T06:32:20.082Z,2.85
2018-05-04T06:34:49.011Z,2.45
2018-05-04T06:37:18.318Z,2.35
2018-05-04T06:39:47.275Z,1.80
2018-05-04T06:42:16.130Z,2.90
2018-05-04T06:44:45.035Z,2.42
2018-05-04T06:47:13.939Z,1.98
2018-05-04T06:49:42.828Z,2.62
2018-05-04T06:52:11.746Z,1.92
2018-05-04T06:54:40.646Z,1.70
2018-05-04T06:57:09.531Z,1.45
2018-05-04T06:59:38.429Z,2.35
2018-05-04T07:02:07.592Z,2.30
2018-05-04T07:04:36.494Z,2.25
2018-05-04T07:07:05.442Z,2.10
2018-05-04T07:09:34.352Z,1.90
2018-05-04T07:12:03.244Z,2.20
2018-05-04T07:14:32.137Z,1.67
2018-05-04T07:17:01.025Z,1.83
2018-05-04T07:19:29.914Z,2.30
2018-05-04T07:21:58.859Z,1.33
2018-05-04T07:24:28.246Z,2.15
2018-05-04T07:26:57.181Z,1.40
2018-05-04T07:29:26.066Z,1.65
2018-05-04T07:31:54.951Z,2.40
2018-05-04T07:34:23.836Z,1.48
2018-05-04T07:36:52.891Z,1.92
2018-05-04T07:39:21.774Z,1.20
2018-05-04T07:41:50.717Z,1.75
2018-05-04T07:44:19.611Z,1.50
2018-05-04T07:46:48.510Z,1.45
2018-05-04T07:49:17.559Z,1.75
2018-05-04T07:51:46.472Z,1.55
2018-05-04T07:54:15.515Z,1.70
2018-05-04T07:56:44.419Z,1.23
2018-05-04T07:59:13.344Z,1.52
2018-05-04T08:01:42.231Z,1.65
2018-05-04T08:04:11.133Z,1.40
2018-05-04T08:06:40.036Z,1.50
2018-05-04T08:09:08.929Z,1.85
2018-05-04T08:11:38.259Z,1.85
2018-05-04T08:14:07.160Z,1.58
2018-05-04T08:16:36.045Z,1.87
2018-05-04T08:19:04.943Z,1.10
2018-05-04T08:21:33.834Z,1.58
2018-05-04T08:24:02.746Z,2.12
2018-05-04T08:26:31.631Z,1.40
2018-05-04T08:29:00.562Z,1.83
2018-05-04T08:31:29.455Z,2.10
2018-05-04T08:33:58.394Z,2.33
2018-05-04T08:36:27.542Z,1.83
2018-05-04T08:38:56.430Z,1.50
2018-05-04T08:41:25.331Z,1.65
2018-05-04T08:43:54.223Z,1.70
2018-05-04T08:46:23.159Z,1.10
2018-05-04T08:48:52.049Z,1.52
2018-05-04T08:51:20.935Z,1.37
2018-05-04T08:53:49.835Z,1.27
2018-05-04T08:56:18.714Z,1.30
2018-05-04T08:58:47.595Z,1.40
2018-05-04T09:01:16.479Z,1.75
2018-05-04T09:03:45.402Z,1.50
2018-05-04T09:06:14.298Z,1.20
2018-05-04T09:08:43.312Z,1.25
2018-05-04T09:11:12.215Z,1.30
2018-05-04T09:13:41.100Z,1.55
2018-05-04T09:16:10.170Z,1.67
2018-05-04T09:18:39.099Z,1.15
2018-05-04T09:21:08.015Z,1.20
2018-05-04T09:23:36.934Z,1.05
2018-05-04T09:26:05.819Z,1.37
2018-05-04T09:28:34.711Z,1.30
2018-05-04T09:31:03.627Z,1.27
2018-05-04T09:33:32.529Z,1.48
2018-05-04T09:36:01.445Z,1.30
2018-05-04T09:38:30.359Z,1.42
2018-05-04T09:40:59.259Z,1.42
2018-05-04T09:43:28.161Z,1.30
2018-05-04T09:45:57.057Z,1.02
2018-05-04T09:48:25.951Z,1.02
2018-05-04T09:50:54.849Z,1.62
2018-05-04T09:53:23.740Z,1.27
2018-05-04T09:55:52.982Z,1.42
2018-05-04T09:58:21.834Z,1.40
2018-05-04T10:00:50.742Z,1.10
2018-05-04T10:03:19.639Z,1.10
2018-05-04T10:05:48.789Z,1.20
2018-05-04T10:08:17.691Z,0.90
2018-05-04T10:10:46.583Z,1.20
2018-05-04T10:13:16.083Z,1.20
2018-05-04T10:15:44.974Z,1.20
2018-05-04T10:18:13.858Z,1.20
2018-05-04T10:20:42.754Z,0.95
2018-05-04T10:23:11.654Z,1.25
2018-05-04T10:25:40.578Z,1.10
2018-05-04T10:28:09.469Z,1.20
2018-05-04T10:30:38.525Z,1.17
2018-05-04T10:33:07.410Z,1.20
2018-05-04T10:35:36.307Z,1.00
2018-05-04T10:38:05.305Z,1.75
2018-05-04T10:40:34.150Z,0.90
2018-05-04T10:43:03.039Z,1.30
2018-05-04T10:45:32.263Z,1.00
2018-05-04T10:48:01.441Z,1.30
2018-05-04T10:50:30.480Z,1.20
2018-05-04T10:52:59.371Z,1.10
2018-05-04T10:55:28.259Z,0.98
2018-05-04T10:57:57.163Z,1.17
2018-05-04T11:00:26.103Z,1.30
2018-05-04T11:02:55.009Z,1.40
2018-05-04T11:05:23.967Z,1.35
2018-05-04T11:07:52.818Z,1.10
2018-05-04T11:10:21.714Z,2.00
2018-05-04T11:12:50.625Z,1.15
2018-05-04T11:15:19.514Z,1.20
2018-05-04T11:17:48.589Z,1.20
2018-05-04T11:20:17.601Z,2.85
2018-05-04T11:22:46.499Z,1.15
2018-05-04T11:25:15.396Z,0.98
2018-05-04T11:27:44.307Z,1.62
2018-05-04T11:30:13.199Z,0.90
2018-05-04T11:32:42.086Z,1.33
2018-05-04T11:35:11.325Z,1.02
2018-05-04T11:37:40.240Z,1.23
2018-05-04T11:40:09.152Z,0.90
2018-05-04T11:42:38.038Z,1.35
2018-05-04T11:45:06.920Z,1.17
2018-05-04T11:47:35.830Z,0.82
2018-05-04T11:50:04.721Z,1.00
2018-05-04T11:52:34.196Z,1.62
2018-05-04T11:55:03.103Z,1.20
2018-05-04T11:57:32.029Z,1.48
2018-05-04T12:00:01.059Z,0.98
2018-05-04T12:02:30.058Z,1.05
2018-05-04T12:04:58.894Z,0.98
2018-05-04T12:07:27.782Z,1.33
2018-05-04T12:09:57.905Z,1.10
2018-05-04T12:12:26.791Z,1.33
2018-05-04T12:14:55.681Z,0.93
2018-05-04T12:17:24.575Z,1.00
2018-05-04T12:19:53.463Z,0.70
2018-05-04T12:22:22.518Z,0.85
2018-05-04T12:24:51.415Z,0.80
2018-05-04T12:27:20.299Z,0.70
2018-05-04T12:29:49.193Z,0.90
2018-05-04T12:32:18.452Z,0.93
2018-05-04T12:34:47.587Z,0.90
2018-05-04T12:37:16.484Z,0.90
2018-05-04T12:39:45.399Z,0.85
2018-05-04T12:42:14.314Z,0.75
2018-05-04T12:44:43.214Z,1.05
2018-05-04T12:47:12.103Z,1.40
2018-05-04T12:49:41.328Z,1.27
2018-05-04T12:52:10.224Z,1.15
2018-05-04T12:54:39.179Z,0.80
2018-05-04T12:57:08.079Z,0.80
2018-05-04T12:59:36.963Z,1.23
2018-05-04T13:02:05.858Z,1.10
2018-05-04T13:04:34.852Z,1.00
2018-05-04T13:07:03.771Z,0.98
2018-05-04T13:09:32.673Z,0.93
2018-05-04T13:12:01.568Z,0.73
2018-05-04T13:14:30.606Z,0.80
2018-05-04T13:16:59.492Z,1.10
2018-05-04T13:19:28.386Z,1.30
2018-05-04T13:21:57.512Z,0.80
2018-05-04T13:24:26.606Z,1.23
2018-05-04T13:26:55.711Z,0.93
2018-05-04T13:29:24.610Z,1.12
2018-05-04T13:31:53.498Z,1.10
2018-05-04T13:34:22.598Z,1.48
2018-05-04T13:36:51.487Z,0.80
2018-05-04T13:39:20.778Z,1.00
2018-05-04T13:41:49.662Z,0.85
2018-05-04T13:44:18.563Z,1.30
2018-05-04T13:46:47.447Z,0.80
2018-05-04T13:49:16.343Z,0.90
2018-05-04T13:51:45.431Z,0.90
2018-05-04T13:54:14.321Z,1.05
2018-05-04T13:56:43.246Z,0.77
2018-05-04T13:59:12.148Z,1.00
2018-05-04T14:01:41.046Z,0.90
2018-05-04T14:04:10.000Z,0.75
2018-05-04T14:06:38.898Z,0.90
2018-05-04T14:09:07.801Z,1.15
2018-05-04T14:11:36.694Z,0.88
2018-05-04T14:14:05.582Z,0.80
2018-05-04T14:16:34.471Z,1.05
2018-05-04T14:19:03.359Z,0.98
2018-05-04T14:21:32.294Z,1.02
2018-05-04T14:24:01.189Z,0.80
2018-05-04T14:26:30.090Z,0.80
2018-05-04T14:28:58.994Z,2.15
2018-05-04T14:31:28.105Z,0.90
2018-05-04T14:33:57.253Z,1.20
2018-05-04T14:36:26.142Z,1.05
2018-05-04T14:38:55.035Z,0.80
2018-05-04T14:41:23.923Z,1.12
2018-05-04T14:43:52.860Z,1.10
2018-05-04T14:46:21.763Z,1.10
2018-05-04T14:48:50.644Z,1.42
2018-05-04T14:51:19.570Z,0.82
2018-05-04T14:53:48.481Z,1.20
2018-05-04T14:56:17.393Z,1.30
2018-05-04T14:58:46.394Z,1.40
2018-05-04T15:01:15.227Z,1.20
2018-05-04T15:03:44.119Z,1.10
2018-05-04T15:06:13.014Z,1.20
2018-05-04T15:08:41.921Z,1.02
2018-05-04T15:11:10.815Z,1.02
2018-05-04T15:13:39.891Z,2.25
2018-05-04T15:16:08.979Z,1.90
2018-05-04T15:18:37.864Z,2.22
2018-05-04T15:21:06.755Z,1.75
2018-05-04T15:23:35.851Z,1.77
2018-05-04T15:26:04.740Z,1.40
2018-05-04T15:28:33.635Z,1.35
2018-05-04T15:31:02.553Z,1.27
2018-05-04T15:33:31.444Z,1.55
2018-05-04T15:36:00.481Z,1.33
2018-05-04T15:38:29.364Z,1.20
2018-05-04T15:40:58.254Z,2.00
2018-05-04T15:43:27.143Z,2.17
2018-05-04T15:45:56.082Z,2.08
2018-05-04T15:48:31.357Z,1.35
2018-05-04T15:51:05.870Z,1.73
2018-05-04T15:53:34.860Z,1.30
2018-05-04T15:56:03.747Z,1.70
2018-05-04T15:58:32.758Z,1.40
2018-05-04T16:01:01.646Z,1.37
2018-05-04T16:03:30.531Z,1.60
2018-05-04T16:05:59.454Z,1.98
2018-05-04T16:08:28.339Z,1.90
2018-05-04T16:10:57.231Z,1.90
2018-05-04T16:13:26.732Z,1.85
2018-05-04T16:15:55.619Z,1.65
2018-05-04T16:18:24.526Z,1.35
2018-05-04T16:20:53.414Z,1.60
2018-05-04T16:23:22.303Z,0.90
2018-05-04T16:25:51.391Z,1.73
2018-05-04T16:28:20.287Z,1.30
2018-05-04T16:30:49.179Z,1.00
2018-05-04T16:33:18.228Z,1.67
2018-05-04T16:35:47.123Z,1.48
2018-05-04T16:38:16.011Z,1.30
2018-05-04T16:40:44.891Z,1.40
2018-05-04T16:43:13.776Z,1.40
2018-05-04T16:45:42.943Z,1.65
2018-05-04T16:48:17.826Z,1.50
2018-05-04T16:50:47.266Z,1.60
2018-05-04T16:53:16.157Z,1.10
2018-05-04T16:55:45.128Z,1.55
2018-05-04T16:58:14.015Z,1.20
2018-05-04T17:00:42.918Z,1.12
2018-05-04T17:03:11.894Z,1.33
2018-05-04T17:05:40.779Z,1.45
2018-05-04T17:08:09.695Z,1.35
2018-05-04T17:10:38.583Z,1.10
2018-05-04T17:13:07.467Z,1.10
2018-05-04T17:15:36.408Z,1.27
2018-05-04T17:18:05.307Z,1.00
2018-05-04T17:20:34.192Z,1.25
2018-05-04T17:23:03.141Z,1.30
2018-05-04T17:25:32.036Z,1.10
2018-05-04T17:28:00.918Z,1.05
2018-05-04T17:30:30.077Z,1.12
2018-05-04T17:32:58.967Z,1.00
2018-05-04T17:35:27.856Z,0.73
2018-05-04T17:37:57.206Z,1.10
2018-05-04T17:40:26.156Z,1.08
2018-05-04T17:42:55.015Z,0.90
2018-05-04T17:45:23.898Z,0.90
2018-05-04T17:47:52.783Z,0.90
2018-05-04T17:50:21.867Z,1.17
2018-05-04T17:52:51.166Z,1.10
2018-05-04T17:55:20.051Z,1.23
2018-05-04T17:57:48.941Z,1.80
2018-05-04T18:00:17.829Z,1.30
2018-05-04T18:02:46.722Z,1.40
2018-05-04T18:05:15.606Z,1.30
2018-05-04T18:07:44.496Z,1.65
2018-05-04T18:10:13.395Z,1.27
2018-05-04T18:12:42.531Z,1.25
2018-05-04T18:15:11.419Z,1.20
2018-05-04T18:17:40.302Z,1.27
2018-05-04T18:20:09.194Z,1.05
2018-05-04T18:22:38.081Z,1.87
2018-05-04T18:25:06.995Z,1.25
2018-05-04T18:27:35.882Z,0.98
2018-05-04T18:30:04.772Z,1.35
2018-05-04T18:32:33.667Z,1.50
2018-05-04T18:35:02.570Z,1.67
2018-05-04T18:37:31.463Z,1.90
2018-05-04T18:40:00.342Z,1.75
2018-05-04T18:42:29.278Z,1.52
2018-05-04T18:44:58.164Z,1.70
2018-05-04T18:47:27.071Z,1.95
2018-05-04T18:49:56.092Z,1.40
2018-05-04T18:52:24.989Z,1.48
2018-05-04T18:54:54.199Z,1.77
2018-05-04T18:57:23.090Z,1.30
2018-05-04T18:59:51.971Z,1.60
2018-05-04T19:02:26.543Z,1.87
2018-05-04T19:04:55.431Z,1.35
2018-05-04T19:07:24.315Z,2.17
2018-05-04T19:09:53.211Z,1.30
2018-05-04T19:12:22.090Z,1.65
2018-05-04T19:14:50.978Z,1.60
2018-05-04T19:17:20.223Z,1.33
2018-05-04T19:19:49.125Z,1.45
2018-05-04T19:22:18.031Z,1.37
2018-05-04T19:24:46.917Z,1.52
2018-05-04T19:27:15.812Z,1.50
2018-05-04T19:29:44.705Z,1.17
2018-05-04T19:32:13.594Z,1.45
2018-05-04T19:34:42.548Z,1.60
2018-05-04T19:37:11.442Z,1.50
2018-05-04T19:39:40.329Z,1.23
2018-05-04T19:42:09.223Z,1.45
2018-05-04T19:44:38.122Z,1.60
2018-05-04T19:47:07.012Z,1.60
2018-05-04T19:49:35.890Z,1.60
2018-05-04T19:52:04.890Z,1.65
2018-05-04T19:54:33.786Z,2.00
2018-05-04T19:57:02.667Z,1.40
2018-05-04T19:59:31.561Z,1.92
2018-05-04T20:02:00.449Z,2.05
2018-05-04T20:04:29.346Z,1.60
2018-05-04T20:06:58.230Z,1.80
2018-05-04T20:09:27.171Z,1.70
2018-05-04T20:11:56.059Z,1.40
2018-05-04T20:14:24.968Z,1.52
2018-05-04T20:16:53.856Z,1.50
2018-05-04T20:19:22.735Z,1.70
2018-05-04T20:21:51.807Z,1.50
2018-05-04T20:24:20.691Z,1.37
2018-05-04T20:26:49.587Z,1.27
2018-05-04T20:29:18.506Z,1.50
2018-05-04T20:31:47.409Z,1.65
2018-05-04T20:34:16.295Z,1.30
2018-05-04T20:36:45.182Z,1.33
2018-05-04T20:39:14.171Z,1.70
2018-05-04T20:41:43.067Z,2.00
2018-05-04T20:44:12.034Z,1.90
2018-05-04T20:46:40.924Z,1.55
2018-05-04T20:49:09.808Z,1.50
2018-05-04T20:51:38.692Z,1.60
2018-05-04T20:54:07.576Z,1.80
2018-05-04T20:56:36.491Z,2.00
2018-05-04T20:59:05.751Z,1.80
2018-05-04T21:01:34.631Z,1.50
2018-05-04T21:04:03.535Z,1.67
2018-05-04T21:06:32.421Z,1.80
2018-05-04T21:09:01.306Z,1.62
2018-05-04T21:11:30.428Z,1.65
2018-05-04T21:13:59.325Z,1.60
2018-05-04T21:16:28.226Z,1.37
2018-05-04T21:18:57.127Z,1.45
2018-05-04T21:21:26.374Z,1.37
2018-05-04T21:23:55.288Z,1.83
2018-05-04T21:26:24.177Z,1.25
2018-05-04T21:28:53.077Z,1.60
2018-05-04T21:31:21.987Z,1.70
2018-05-04T21:33:50.871Z,1.45
2018-05-04T21:36:19.755Z,1.35
2018-05-04T21:38:48.651Z,2.12
2018-05-04T21:41:17.563Z,1.55
2018-05-04T21:43:46.451Z,1.55
2018-05-04T21:46:15.331Z,1.10
2018-05-04T21:48:44.214Z,1.40
2018-05-04T21:51:13.105Z,1.52
2018-05-04T21:53:41.994Z,1.65
2018-05-04T21:56:11.248Z,1.48
2018-05-04T21:58:40.353Z,1.48
2018-05-04T22:01:09.244Z,1.30
2018-05-04T22:03:38.143Z,1.70
2018-05-04T22:06:07.032Z,1.48
2018-05-04T22:08:35.922Z,1.58
2018-05-04T22:11:05.019Z,1.73
2018-05-04T22:13:33.911Z,1.30
2018-05-04T22:16:02.805Z,1.30
2018-05-04T22:18:31.692Z,1.73
2018-05-04T22:21:00.587Z,1.48
2018-05-04T22:23:29.539Z,1.65
2018-05-04T22:25:58.426Z,1.48
2018-05-04T22:28:27.319Z,1.70
2018-05-04T22:30:56.206Z,1.50
2018-05-04T22:33:25.091Z,1.98
2018-05-04T22:35:54.023Z,1.60
2018-05-04T22:38:22.905Z,1.30
2018-05-04T22:40:51.804Z,1.50
2018-05-04T22:43:20.778Z,1.80
2018-05-04T22:45:49.668Z,1.98
2018-05-04T22:48:18.613Z,2.17
2018-05-04T22:50:47.507Z,1.67
2018-05-04T22:53:16.395Z,1.30
2018-05-04T22:55:45.279Z,1.58
2018-05-04T22:58:14.170Z,1.40
2018-05-04T23:00:43.238Z,1.20
2018-05-04T23:03:12.135Z,1.48
2018-05-04T23:05:41.023Z,1.50
2018-05-04T23:08:09.950Z,1.55
2018-05-04T23:10:38.834Z,1.35
2018-05-04T23:13:07.717Z,1.50
2018-05-04T23:15:36.627Z,1.58
2018-05-04T23:18:05.674Z,1.40
2018-05-04T23:20:34.563Z,1.55
2018-05-04T23:23:03.459Z,1.80
2018-05-04T23:25:32.363Z,1.83
2018-05-04T23:28:01.660Z,1.45
2018-05-04T23:30:30.747Z,1.60
2018-05-04T23:32:59.634Z,1.37
2018-05-04T23:35:28.607Z,1.50
2018-05-04T23:37:57.459Z,1.40
2018-05-04T23:40:26.396Z,1.90
2018-05-04T23:42:55.281Z,1.30
2018-05-04T23:45:24.170Z,1.23
2018-05-04T23:47:53.051Z,1.42
2018-05-04T23:50:21.947Z,1.50
2018-05-04T23:52:50.830Z,1.45
2018-05-04T23:55:19.737Z,1.50
2018-05-04T23:57:48.677Z,1.50
